Time;durP1;ratioP1;P1;durP2;ratioP2;P2;SDS_P1;SDS_P2;PMS_P1;PMS_P2;Temp;Humidity;BMP_temperature;BMP_pressure;BME280_temperature;BME280_humidity;BME280_pressure;Samples;Min_cycle;Max_cycle;Signal;HPM_P1;HPM_P2
2021/07/18 00:00:26;;;;;;;0.40;0.00;;;;;;;25.86;62.42;100097.05;126124;1096;102978;-61
2021/07/18 00:02:53;;;;;;;0.40;0.00;;;;;;;25.87;62.70;100095.16;126108;1095;114488;-62
2021/07/18 00:05:21;;;;;;;0.40;0.00;;;;;;;25.90;62.94;100097.63;126066;1096;103048;-61
2021/07/18 00:07:49;;;;;;;0.40;0.00;;;;;;;25.91;62.46;100102.08;126025;1096;114381;-61
2021/07/18 00:10:16;;;;;;;0.40;0.00;;;;;;;25.87;62.98;100103.34;126156;1095;102989;-61
2021/07/18 00:12:44;;;;;;;0.40;0.00;;;;;;;25.84;62.98;100099.08;126333;1096;102901;-61
2021/07/18 00:15:13;;;;;;;0.40;0.00;;;;;;;25.79;63.10;100095.05;126129;1095;114362;-61
2021/07/18 00:17:40;;;;;;;0.40;0.00;;;;;;;25.74;63.50;100100.95;126219;1096;103029;-61
2021/07/18 00:20:13;;;;;;;0.40;0.00;;;;;;;25.72;63.74;100102.11;125869;1094;114395;-61
2021/07/18 00:22:41;;;;;;;0.40;0.00;;;;;;;25.45;64.16;100103.72;126205;1095;103138;-61
2021/07/18 00:25:10;;;;;;;0.40;0.00;;;;;;;25.24;65.19;100101.95;126062;1095;102916;-61
2021/07/18 00:27:38;;;;;;;0.40;0.00;;;;;;;25.15;65.55;100103.68;126105;1096;114542;-61
2021/07/18 00:30:07;;;;;;;0.40;0.00;;;;;;;25.30;65.04;100097.81;126119;1096;102981;-61
2021/07/18 00:32:34;;;;;;;0.40;0.00;;;;;;;25.49;64.47;100097.81;126640;1096;114717;-61
2021/07/18 00:35:03;;;;;;;0.40;0.00;;;;;;;25.61;64.04;100089.49;126086;1095;102884;-61
2021/07/18 00:37:30;;;;;;;0.40;0.00;;;;;;;25.67;63.83;100103.41;126096;1096;114710;-61
2021/07/18 00:39:57;;;;;;;0.40;0.00;;;;;;;25.66;63.70;100087.20;126178;1095;102906;-61
2021/07/18 00:42:25;;;;;;;0.40;0.00;;;;;;;25.70;63.62;100089.47;126134;1095;102946;-61
2021/07/18 00:44:52;;;;;;;0.40;0.00;;;;;;;25.71;64.06;100098.50;125999;1095;114296;-61
2021/07/18 00:47:21;;;;;;;0.40;0.00;;;;;;;25.58;64.28;100093.38;126118;1095;102884;-61
2021/07/18 00:49:49;;;;;;;0.40;0.00;;;;;;;25.56;64.04;100098.09;126021;1096;114681;-61
2021/07/18 00:52:16;;;;;;;0.40;0.00;;;;;;;25.53;64.14;100103.84;126152;1096;103042;-61
2021/07/18 00:54:44;;;;;;;0.40;0.00;;;;;;;25.56;64.15;100103.55;126123;1095;102913;-61
2021/07/18 00:57:12;;;;;;;0.40;0.00;;;;;;;25.62;64.08;100096.64;125988;1095;114194;-61
2021/07/18 00:59:39;;;;;;;0.40;0.00;;;;;;;25.69;63.73;100093.19;125976;1096;102966;-61
2021/07/18 01:02:06;;;;;;;0.40;0.00;;;;;;;25.68;63.71;100096.07;125876;1094;114568;-61
2021/07/18 01:04:34;;;;;;;0.40;0.00;;;;;;;25.69;63.86;100104.11;125930;1095;102959;-61
2021/07/18 01:07:02;;;;;;;0.40;0.00;;;;;;;25.71;63.75;100103.95;126095;1095;104425;-61
2021/07/18 01:09:29;;;;;;;0.40;0.00;;;;;;;25.66;63.81;100100.83;125993;1095;114268;-61
2021/07/18 01:11:57;;;;;;;0.40;0.00;;;;;;;25.60;63.74;100093.22;126138;1094;103044;-61
2021/07/18 01:14:26;;;;;;;0.40;0.00;;;;;;;25.60;63.94;100098.67;126124;1095;114730;-61
2021/07/18 01:16:53;;;;;;;0.40;0.00;;;;;;;25.58;64.02;100096.09;126107;1096;102992;-61
2021/07/18 01:19:21;;;;;;;0.40;0.00;;;;;;;25.59;64.02;100110.58;126019;1096;114962;-61
2021/07/18 01:22:00;;;;;;;0.40;0.00;;;;;;;25.60;63.65;100098.67;126119;1095;102971;-59
2021/07/18 01:24:30;;;;;;;0.40;0.00;;;;;;;25.61;63.52;100100.41;126152;1095;102890;-61
2021/07/18 01:26:58;;;;;;;0.40;0.00;;;;;;;25.60;63.46;100106.86;126155;1096;114335;-61
2021/07/18 01:29:27;;;;;;;0.40;0.00;;;;;;;25.59;63.72;100105.13;126068;1096;102895;-61
2021/07/18 01:31:55;;;;;;;0.40;0.00;;;;;;;25.54;63.56;100106.42;126031;1096;114465;-61
2021/07/18 01:34:23;;;;;;;0.40;0.00;;;;;;;25.49;64.00;100114.17;126344;1096;103059;-61
2021/07/18 01:36:51;;;;;;;0.40;0.00;;;;;;;25.53;63.78;100120.20;125998;1096;102924;-61
2021/07/18 01:39:18;;;;;;;0.40;0.00;;;;;;;25.46;63.82;100116.35;126004;1096;118434;-61
2021/07/18 01:41:47;;;;;;;0.40;0.00;;;;;;;25.50;63.67;100115.05;126142;1096;102866;-61
2021/07/18 01:44:14;;;;;;;0.40;0.00;;;;;;;25.44;63.70;100112.89;126167;1095;114460;-61
2021/07/18 01:46:42;;;;;;;0.40;0.00;;;;;;;25.51;63.66;100111.30;126126;1095;102921;-61
2021/07/18 01:49:11;;;;;;;0.40;0.00;;;;;;;25.59;63.52;100116.91;126119;1095;103345;-61
2021/07/18 01:51:39;;;;;;;0.40;0.00;;;;;;;25.59;63.58;100116.03;125970;1096;114203;-61
2021/07/18 01:54:08;;;;;;;0.40;0.00;;;;;;;25.61;63.33;100123.06;126176;1096;103048;-61
2021/07/18 01:56:35;;;;;;;0.40;0.00;;;;;;;25.67;63.48;100117.05;125987;1096;114197;-61
2021/07/18 01:59:02;;;;;;;0.40;0.00;;;;;;;25.74;63.09;100119.17;126110;1095;103028;-61
2021/07/18 02:01:32;;;;;;;0.40;0.00;;;;;;;25.78;62.95;100126.94;126080;1096;114507;-61
2021/07/18 02:04:02;;;;;;;0.40;0.00;;;;;;;25.77;63.40;100118.90;126193;1096;102991;-61
2021/07/18 02:06:31;;;;;;;0.40;0.00;;;;;;;25.78;63.21;100123.33;126140;1095;102996;-61
2021/07/18 02:09:00;;;;;;;0.40;0.00;;;;;;;25.81;62.87;100123.91;126006;1096;114409;-61
2021/07/18 02:11:28;;;;;;;0.40;0.00;;;;;;;25.85;63.06;100122.59;126153;1095;102930;-61
2021/07/18 02:13:57;;;;;;;0.40;0.00;;;;;;;25.84;63.13;100120.91;126064;1095;114327;-61
2021/07/18 02:16:28;;;;;;;0.40;0.00;;;;;;;25.81;62.94;100129.36;126157;1095;102966;-61
2021/07/18 02:18:56;;;;;;;0.40;0.00;;;;;;;25.75;63.04;100124.50;126028;1095;103025;-61
2021/07/18 02:21:23;;;;;;;0.40;0.00;;;;;;;25.65;63.46;100127.22;126055;1094;114443;-61
2021/07/18 02:23:50;;;;;;;0.40;0.00;;;;;;;25.68;63.31;100121.50;126175;1095;103078;-61
2021/07/18 02:26:18;;;;;;;0.40;0.00;;;;;;;25.68;63.79;100123.34;126184;1096;114273;-61
2021/07/18 02:28:45;;;;;;;0.40;0.00;;;;;;;25.67;63.69;100127.08;126096;1095;103036;-61
2021/07/18 02:31:12;;;;;;;0.40;0.00;;;;;;;25.68;63.66;100126.95;126102;1096;103045;-61
2021/07/18 02:33:39;;;;;;;0.40;0.00;;;;;;;25.74;63.28;100133.69;125990;1095;114427;-61
2021/07/18 02:36:07;;;;;;;0.40;0.00;;;;;;;25.80;63.42;100133.09;126058;1095;103260;-61
2021/07/18 02:38:35;;;;;;;0.40;0.00;;;;;;;25.83;63.26;100132.81;125986;1096;114235;-61
2021/07/18 02:41:02;;;;;;;0.40;0.00;;;;;;;25.80;63.33;100134.97;126072;1096;102919;-61
2021/07/18 02:43:29;;;;;;;0.40;0.00;;;;;;;25.83;63.19;100124.63;126076;1095;114869;-61
2021/07/18 02:45:57;;;;;;;0.40;0.00;;;;;;;25.85;63.22;100125.33;126062;1095;103148;-61
2021/07/18 02:48:24;;;;;;;0.40;0.00;;;;;;;25.83;63.44;100124.63;126134;1094;103040;-61
2021/07/18 02:50:52;;;;;;;0.40;0.00;;;;;;;25.77;63.79;100127.94;126027;1096;114564;-61
2021/07/18 02:53:19;;;;;;;0.40;0.00;;;;;;;25.63;63.88;100123.80;126148;1096;102907;-61
2021/07/18 02:55:46;;;;;;;0.40;0.00;;;;;;;25.57;64.44;100126.24;126008;1096;114736;-61
2021/07/18 02:58:13;;;;;;;0.40;0.00;;;;;;;25.51;64.54;100122.20;126095;1095;102978;-61
2021/07/18 03:00:40;;;;;;;0.40;0.00;;;;;;;25.41;64.82;100118.64;126210;1095;103023;-61
2021/07/18 03:03:08;;;;;;;0.40;0.00;;;;;;;25.39;65.07;100120.64;126037;1095;114102;-61
2021/07/18 03:05:35;;;;;;;0.40;0.00;;;;;;;25.32;65.46;100125.77;126205;1095;102896;-61
2021/07/18 03:08:02;;;;;;;0.40;0.00;;;;;;;25.20;65.96;100122.31;126008;1095;114750;-61
2021/07/18 03:10:29;;;;;;;0.40;0.00;;;;;;;25.20;65.82;100127.77;126110;1095;103017;-61
2021/07/18 03:12:57;;;;;;;0.40;0.00;;;;;;;25.26;65.46;100119.03;126155;1095;102905;-61
2021/07/18 03:15:24;;;;;;;0.40;0.00;;;;;;;25.33;65.53;100125.63;126040;1095;114119;-61
2021/07/18 03:17:51;;;;;;;0.40;0.00;;;;;;;25.32;65.99;100128.49;126077;1096;103065;-61
2021/07/18 03:20:19;;;;;;;0.40;0.00;;;;;;;25.18;66.19;100135.23;126065;1095;114184;-61
2021/07/18 03:22:47;;;;;;;0.40;0.00;;;;;;;25.17;66.25;100134.36;126253;1096;102914;-61
2021/07/18 03:25:16;;;;;;;0.40;0.00;;;;;;;25.12;66.78;100130.34;126106;1096;102891;-61
2021/07/18 03:27:44;;;;;;;0.40;0.00;;;;;;;25.10;66.91;100127.77;126109;1096;114404;-61
2021/07/18 03:30:13;;;;;;;0.40;0.00;;;;;;;25.01;67.02;100142.23;126037;1095;102988;-61
2021/07/18 03:32:41;;;;;;;0.40;0.00;;;;;;;24.99;67.28;100142.38;126032;1095;114648;-61
2021/07/18 03:35:09;;;;;;;0.40;0.00;;;;;;;25.04;67.36;100141.94;126481;1096;102991;-61
2021/07/18 03:37:37;;;;;;;0.40;0.00;;;;;;;25.07;66.97;100140.80;126087;1096;114365;-61
2021/07/18 03:40:07;;;;;;;0.40;0.00;;;;;;;25.00;67.20;100143.23;126100;1096;103073;-61
2021/07/18 03:42:34;;;;;;;0.40;0.00;;;;;;;24.96;67.54;100153.53;126241;1096;102897;-61
2021/07/18 03:45:01;;;;;;;0.40;0.00;;;;;;;25.00;67.19;100157.70;126063;1096;114539;-61
2021/07/18 03:47:28;;;;;;;0.40;0.00;;;;;;;25.05;67.12;100154.57;126319;1095;102888;-61
2021/07/18 03:50:00;;;;;;;0.40;0.00;;;;;;;25.08;66.82;100157.00;126069;1095;114691;-61
2021/07/18 03:52:28;;;;;;;0.40;0.00;;;;;;;25.13;66.73;100151.15;126179;1095;102882;-61
2021/07/18 03:54:55;;;;;;;0.40;0.00;;;;;;;25.07;66.92;100152.58;126176;1096;103013;-61
2021/07/18 03:57:22;;;;;;;0.40;0.00;;;;;;;25.15;66.86;100152.73;125996;1095;113174;-61
2021/07/18 03:59:51;;;;;;;0.40;0.00;;;;;;;25.17;66.64;100153.44;126156;1095;102896;-61
2021/07/18 04:02:18;;;;;;;0.40;0.00;;;;;;;25.18;66.98;100154.31;126080;1096;113190;-61
2021/07/18 04:04:45;;;;;;;0.40;0.00;;;;;;;25.13;66.98;100154.72;126053;1096;102892;-62
2021/07/18 04:07:13;;;;;;;0.40;0.00;;;;;;;25.17;67.12;100158.89;126127;1096;103026;-61
2021/07/18 04:09:40;;;;;;;0.40;0.00;;;;;;;25.16;67.26;100157.16;126029;1096;114015;-61
2021/07/18 04:12:07;;;;;;;0.40;0.00;;;;;;;25.24;67.29;100148.28;126080;1095;102905;-61
2021/07/18 04:14:34;;;;;;;0.40;0.00;;;;;;;25.25;67.12;100151.89;126055;1096;114141;-61
2021/07/18 04:17:02;;;;;;;0.40;0.00;;;;;;;25.27;67.14;100158.04;126173;1095;102906;-61
2021/07/18 04:19:29;;;;;;;0.40;0.00;;;;;;;25.39;66.90;100156.08;126037;1096;114310;-61
2021/07/18 04:21:56;;;;;;;0.40;0.00;;;;;;;25.40;66.98;100158.66;126100;1095;102921;-61
2021/07/18 04:24:25;;;;;;;0.40;0.00;;;;;;;25.33;66.91;100155.61;126124;1095;103006;-61
2021/07/18 04:26:52;;;;;;;0.40;0.00;;;;;;;25.43;67.02;100154.78;125973;1095;114481;-61
2021/07/18 04:29:19;;;;;;;0.40;0.00;;;;;;;25.48;66.62;100155.22;126131;1095;102906;-61
2021/07/18 04:31:46;;;;;;;0.40;0.00;;;;;;;25.58;66.65;100158.82;126049;1096;114450;-61
2021/07/18 04:34:13;;;;;;;0.40;0.00;;;;;;;25.63;66.83;100156.53;126083;1095;102897;-61
2021/07/18 04:36:40;;;;;;;0.40;0.00;;;;;;;25.64;66.55;100157.38;126149;1095;102894;-61
2021/07/18 04:39:08;;;;;;;0.40;0.00;;;;;;;25.61;66.70;100157.67;126008;1095;114176;-61
2021/07/18 04:41:35;;;;;;;0.40;0.00;;;;;;;25.72;66.44;100165.69;126092;1095;102920;-61
2021/07/18 04:44:04;;;;;;;0.40;0.00;;;;;;;25.81;66.39;100163.97;125887;1095;113574;-61
2021/07/18 04:46:31;;;;;;;0.40;0.00;;;;;;;25.83;65.90;100161.95;126218;1096;102897;-61
2021/07/18 04:48:58;;;;;;;0.40;0.00;;;;;;;25.78;66.08;100162.39;126087;1096;102891;-61
2021/07/18 04:51:26;;;;;;;0.40;0.00;;;;;;;25.83;66.14;100159.22;125990;1095;113683;-61
2021/07/18 04:53:53;;;;;;;0.40;0.00;;;;;;;25.80;65.82;100163.09;126149;1096;103036;-61
2021/07/18 04:56:21;;;;;;;0.40;0.00;;;;;;;25.80;66.07;100165.82;126077;1096;114502;-61
2021/07/18 04:58:49;;;;;;;0.40;0.00;;;;;;;25.77;65.91;100162.55;126123;1095;103369;-61
2021/07/18 05:01:16;;;;;;;0.40;0.00;;;;;;;25.78;66.29;100164.24;126108;1096;103005;-61
2021/07/18 05:03:44;;;;;;;0.40;0.00;;;;;;;25.86;65.98;100164.41;126104;1095;114172;-61
2021/07/18 05:06:11;;;;;;;0.40;0.00;;;;;;;25.91;65.86;100177.59;126026;1096;103333;-61
2021/07/18 05:08:38;;;;;;;0.40;0.00;;;;;;;25.94;65.57;100169.11;125973;1095;114813;-61
2021/07/18 05:11:05;;;;;;;0.40;0.00;;;;;;;25.94;65.49;100166.38;126155;1095;103009;-61
2021/07/18 05:13:33;;;;;;;0.40;0.00;;;;;;;25.89;65.88;100157.80;126095;1095;114796;-61
2021/07/18 05:16:00;;;;;;;0.40;0.00;;;;;;;25.99;65.78;100158.63;126137;1095;102911;-61
2021/07/18 05:18:27;;;;;;;0.40;0.00;;;;;;;26.02;65.67;100159.20;126138;1095;102910;-61
2021/07/18 05:20:54;;;;;;;0.40;0.00;;;;;;;26.04;65.38;100167.27;126076;1096;114178;-61
2021/07/18 05:23:21;;;;;;;0.40;0.00;;;;;;;26.03;65.74;100168.27;126133;1095;102888;-61
2021/07/18 05:25:49;;;;;;;0.40;0.00;;;;;;;26.00;65.73;100173.99;126145;1096;114784;-61
2021/07/18 05:28:16;;;;;;;0.40;0.00;;;;;;;25.94;65.69;100167.27;126095;1095;103012;-61
2021/07/18 05:30:43;;;;;;;0.40;0.00;;;;;;;25.91;65.99;100166.68;126175;1096;102925;-61
2021/07/18 05:33:11;;;;;;;0.40;0.00;;;;;;;25.96;65.93;100169.84;126006;1096;114742;-61
2021/07/18 05:35:38;;;;;;;0.40;0.00;;;;;;;26.03;65.86;100170.99;126188;1095;103049;-61
2021/07/18 05:38:06;;;;;;;0.40;0.00;;;;;;;26.03;65.84;100168.27;125931;1096;114319;-61
2021/07/18 05:40:33;;;;;;;0.40;0.00;;;;;;;26.08;65.49;100168.69;126188;1095;102922;-61
2021/07/18 05:43:01;;;;;;;0.40;0.00;;;;;;;26.15;65.61;100169.84;126370;1096;102910;-61
2021/07/18 05:45:28;;;;;;;0.40;0.00;;;;;;;26.14;65.72;100173.58;126084;1096;114163;-61
2021/07/18 05:47:55;;;;;;;0.40;0.00;;;;;;;26.18;65.01;100172.27;126150;1096;103012;-61
2021/07/18 05:50:23;;;;;;;0.40;0.00;;;;;;;26.12;65.39;100178.30;126050;1096;114351;-61
2021/07/18 05:52:50;;;;;;;0.40;0.00;;;;;;;26.03;65.33;100180.06;126123;1096;102904;-60
2021/07/18 05:55:17;;;;;;;0.40;0.00;;;;;;;26.06;65.26;100180.76;126060;1095;103059;-60
2021/07/18 05:57:44;;;;;;;0.40;0.00;;;;;;;26.14;65.24;100176.30;126053;1095;112942;-60
2021/07/18 06:00:13;;;;;;;0.40;0.00;;;;;;;26.17;65.17;100178.73;126126;1095;102911;-60
2021/07/18 06:02:41;;;;;;;0.40;0.00;;;;;;;26.12;64.85;100174.73;126036;1096;114422;-60
2021/07/18 06:05:10;;;;;;;0.40;0.00;;;;;;;26.17;65.35;100175.15;126201;1096;103089;-60
2021/07/18 06:07:38;;;;;;;0.40;0.00;;;;;;;26.19;65.12;100175.84;126200;1095;114366;-60
2021/07/18 06:10:08;;;;;;;0.40;0.00;;;;;;;26.14;65.06;100173.58;126125;1096;102985;-60
2021/07/18 06:12:35;;;;;;;0.40;0.00;;;;;;;26.06;64.77;100170.72;126212;1095;102884;-60
2021/07/18 06:15:05;;;;;;;0.40;0.00;;;;;;;26.00;64.67;100163.08;126085;1096;114673;-60
2021/07/18 06:17:32;;;;;;;0.40;0.00;;;;;;;26.04;64.90;100164.53;126452;1094;102911;-60
2021/07/18 06:20:00;;;;;;;0.40;0.00;;;;;;;26.12;64.31;100172.00;126503;1095;114421;-60
2021/07/18 06:22:27;;;;;;;0.40;0.00;;;;;;;26.23;64.39;100170.96;126111;1095;103033;-60
2021/07/18 06:24:54;;;;;;;0.40;0.00;;;;;;;26.30;64.26;100172.11;126183;1095;103061;-60
2021/07/18 06:27:21;;;;;;;0.40;0.00;;;;;;;26.26;64.22;100166.08;126023;1096;113674;-60
2021/07/18 06:29:48;;;;;;;0.40;0.00;;;;;;;26.29;63.99;100170.38;126180;1096;102897;-60
2021/07/18 06:32:15;;;;;;;0.40;0.00;;;;;;;26.33;64.19;100169.07;125931;1096;114321;-60
2021/07/18 06:34:43;;;;;;;0.40;0.00;;;;;;;26.37;64.51;100170.49;126118;1096;102953;-60
2021/07/18 06:37:10;;;;;;;0.40;0.00;;;;;;;26.34;64.06;100176.27;126103;1095;102888;-60
2021/07/18 06:39:37;;;;;;;0.40;0.00;;;;;;;26.28;64.61;100168.66;126131;1095;114150;-60
2021/07/18 06:42:04;;;;;;;0.40;0.00;;;;;;;26.22;64.66;100171.96;126127;1094;102879;-60
2021/07/18 06:44:31;;;;;;;0.40;0.00;;;;;;;26.19;64.55;100174.00;126015;1095;114482;-60
2021/07/18 06:46:59;;;;;;;0.40;0.00;;;;;;;26.22;64.22;100175.58;126171;1095;102907;-60
2021/07/18 06:49:26;;;;;;;0.40;0.00;;;;;;;26.20;64.25;100174.84;126008;1096;114305;-60
2021/07/18 06:51:53;;;;;;;0.40;0.00;;;;;;;26.18;64.61;100177.73;126185;1095;103039;-60
2021/07/18 06:54:20;;;;;;;0.40;0.00;;;;;;;26.26;64.48;100176.11;126167;1096;103012;-60
2021/07/18 06:56:48;;;;;;;0.40;0.00;;;;;;;26.23;64.38;100180.03;126069;1096;114521;-60
2021/07/18 06:59:16;;;;;;;0.40;0.00;;;;;;;26.26;64.12;100178.84;126123;1095;102894;-60
2021/07/18 07:01:43;;;;;;;0.40;0.00;;;;;;;26.15;64.22;100177.15;126056;1096;114322;-60
2021/07/18 07:04:10;;;;;;;0.40;0.00;;;;;;;26.05;64.49;100179.91;126163;1094;102882;-60
2021/07/18 07:06:38;;;;;;;0.40;0.00;;;;;;;26.06;64.77;100181.64;126036;1096;102911;-60
2021/07/18 07:09:05;;;;;;;0.40;0.00;;;;;;;26.06;64.63;100184.37;125998;1095;113254;-59
2021/07/18 07:11:32;;;;;;;0.40;0.00;;;;;;;26.08;64.46;100178.76;126140;1095;102916;-60
2021/07/18 07:14:00;;;;;;;0.40;0.00;;;;;;;26.08;64.38;100181.48;126066;1096;114300;-60
2021/07/18 07:16:27;;;;;;;0.40;0.00;;;;;;;26.05;64.46;100189.98;126247;1095;102991;-60
2021/07/18 07:18:54;;;;;;;0.40;0.00;;;;;;;25.98;64.70;100195.13;126167;1096;102887;-60
2021/07/18 07:21:21;;;;;;;0.40;0.00;;;;;;;25.96;64.46;100186.20;126106;1095;113384;-59
2021/07/18 07:23:49;;;;;;;0.40;0.00;;;;;;;25.90;64.71;100193.12;126139;1094;103438;-59
2021/07/18 07:26:16;;;;;;;0.40;0.00;;;;;;;25.85;64.80;100190.80;126062;1096;114192;-60
2021/07/18 07:28:43;;;;;;;0.40;0.00;;;;;;;25.86;64.89;100195.27;126259;1095;102910;-59
2021/07/18 07:31:11;;;;;;;0.40;0.00;;;;;;;25.83;64.74;100194.69;126161;1096;103531;-59
2021/07/18 07:33:39;;;;;;;0.40;0.00;;;;;;;25.96;64.77;100202.58;126005;1096;114309;-59
2021/07/18 07:36:06;;;;;;;0.40;0.00;;;;;;;26.03;64.75;100201.02;126094;1095;102970;-59
2021/07/18 07:38:34;;;;;;;0.40;0.00;;;;;;;26.12;65.06;100196.56;126053;1095;113241;-57
2021/07/18 07:41:02;;;;;;;0.40;0.00;;;;;;;26.19;63.84;100195.83;126398;1095;102909;-60
2021/07/18 07:43:29;;;;;;;0.40;0.00;;;;;;;26.26;64.36;100197.95;126029;1096;114706;-60
2021/07/18 07:45:56;;;;;;;0.40;0.00;;;;;;;26.44;63.58;100192.60;126176;1095;102956;-60
2021/07/18 07:48:23;;;;;;;0.40;0.00;;;;;;;26.55;62.84;100200.59;126160;1096;103316;-60
2021/07/18 07:50:51;;;;;;;0.40;0.00;;;;;;;26.56;63.15;100199.59;125951;1096;114225;-60
2021/07/18 07:53:18;;;;;;;0.40;0.00;;;;;;;26.56;62.70;100201.48;126228;1095;102968;-60
2021/07/18 07:55:46;;;;;;;0.40;0.00;;;;;;;26.55;62.75;100200.59;126060;1096;114532;-60
2021/07/18 07:58:14;;;;;;;0.40;0.00;;;;;;;26.53;63.10;100198.02;126661;1095;102915;-60
2021/07/18 08:00:42;;;;;;;0.40;0.00;;;;;;;26.48;62.85;100200.34;126091;1096;102916;-62
2021/07/18 08:03:10;;;;;;;0.40;0.00;;;;;;;26.51;62.84;100207.38;125895;1095;114173;-61
2021/07/18 08:05:37;;;;;;;0.40;0.00;;;;;;;26.65;62.81;100209.63;126172;1095;102879;-61
2021/07/18 08:08:06;;;;;;;0.40;0.00;;;;;;;26.76;62.44;100211.34;125934;1095;114735;-61
2021/07/18 08:10:33;;;;;;;0.40;0.00;;;;;;;26.84;61.96;100195.08;126055;1096;102969;-62
2021/07/18 08:13:01;;;;;;;0.40;0.00;;;;;;;26.87;62.18;100199.34;126221;1095;103853;-62
2021/07/18 08:15:28;;;;;;;0.40;0.00;;;;;;;27.02;61.88;100200.58;126083;1095;114288;-63
2021/07/18 08:17:55;;;;;;;0.40;0.00;;;;;;;26.96;60.87;100208.52;126153;1096;102928;-61
2021/07/18 08:20:25;;;;;;;0.40;0.00;;;;;;;26.98;61.59;100207.36;125806;1095;114368;-61
2021/07/18 08:22:55;;;;;;;0.40;0.00;;;;;;;27.04;61.13;100200.42;126277;1095;102942;-62
2021/07/18 08:25:25;;;;;;;0.40;0.00;;;;;;;27.03;61.44;100199.57;126035;1096;114368;-61
2021/07/18 08:27:54;;;;;;;0.40;0.00;;;;;;;27.09;61.34;100200.83;126156;1095;102975;-60
2021/07/18 08:30:21;;;;;;;0.40;0.00;;;;;;;27.21;60.93;100201.48;126172;1095;102913;-60
2021/07/18 08:32:50;;;;;;;0.40;0.00;;;;;;;27.29;60.65;100203.45;126072;1096;114214;-60
2021/07/18 08:35:19;;;;;;;0.40;0.00;;;;;;;27.31;59.78;100202.28;126146;1095;102914;-60
2021/07/18 08:37:47;;;;;;;0.40;0.00;;;;;;;27.37;59.79;100203.56;126079;1094;114476;-61
2021/07/18 08:40:15;;;;;;;0.40;0.00;;;;;;;27.26;59.26;100206.47;126218;1096;102882;-60
2021/07/18 08:42:42;;;;;;;0.40;0.00;;;;;;;27.31;59.67;100213.22;126313;1095;102891;-59
2021/07/18 08:45:11;;;;;;;0.40;0.00;;;;;;;27.48;59.08;100205.22;126002;1096;114138;-60
2021/07/18 08:47:39;;;;;;;0.40;0.00;;;;;;;27.55;58.39;100200.86;126173;1096;103051;-62
2021/07/18 08:50:09;;;;;;;0.40;0.00;;;;;;;27.55;58.75;100209.06;125853;1096;115079;-61
2021/07/18 08:52:37;;;;;;;0.40;0.00;;;;;;;27.66;58.84;100203.34;126202;1096;103064;-61
2021/07/18 08:55:07;;;;;;;0.40;0.00;;;;;;;27.77;58.62;100196.77;126005;1096;103056;-61
2021/07/18 08:57:35;;;;;;;0.40;0.00;;;;;;;27.86;58.19;100198.56;126147;1096;114525;-61
2021/07/18 09:00:04;;;;;;;0.40;0.00;;;;;;;27.79;57.83;100199.34;125987;1096;103050;-61
2021/07/18 09:02:32;;;;;;;0.40;0.00;;;;;;;27.81;58.43;100206.38;126110;1095;114360;-61
2021/07/18 09:04:59;;;;;;;0.40;0.00;;;;;;;27.82;58.60;100201.78;126096;1095;103032;-61
2021/07/18 09:07:26;;;;;;;0.40;0.00;;;;;;;27.97;58.04;100204.81;125922;1096;114853;-60
2021/07/18 09:10:05;;;;;;;0.40;0.00;;;;;;;27.99;57.65;100209.11;125918;1095;102924;-60
2021/07/18 09:12:33;;;;;;;0.40;0.00;;;;;;;28.12;57.67;100208.71;126242;1096;104116;-60
2021/07/18 09:15:00;;;;;;;0.40;0.00;;;;;;;28.17;57.24;100202.77;125999;1095;113246;-63
2021/07/18 09:17:34;;;;;;;0.40;0.00;;;;;;;28.33;57.89;100205.61;126072;1096;103047;-61
2021/07/18 09:20:16;;;;;;;0.40;0.00;;;;;;;28.55;57.51;100213.45;126112;1096;114402;-61
2021/07/18 09:22:44;;;;;;;0.40;0.00;;;;;;;28.61;56.94;100210.08;126096;1096;102879;-62
2021/07/18 09:25:12;;;;;;;0.40;0.00;;;;;;;28.65;56.34;100211.50;126153;1095;102988;-62
2021/07/18 09:27:39;;;;;;;0.40;0.00;;;;;;;28.86;56.19;100211.94;126080;1095;113936;-60
2021/07/18 09:30:14;;;;;;;0.40;0.00;;;;;;;28.98;55.07;100211.66;126197;1095;103382;-60
2021/07/18 09:32:45;;;;;;;0.40;0.00;;;;;;;28.94;55.69;100207.54;126011;1095;114236;-60
2021/07/18 09:35:14;;;;;;;0.40;0.00;;;;;;;29.36;55.20;100209.40;126351;1095;102930;-60
2021/07/18 09:37:47;;;;;;;0.40;0.00;;;;;;;29.85;53.14;100212.20;126072;1096;114059;-60
2021/07/18 09:40:19;;;;;;;0.40;0.00;;;;;;;29.94;53.00;100204.03;125993;1095;103222;-60
2021/07/18 09:42:50;;;;;;;0.40;0.00;;;;;;;30.14;51.52;100204.53;126128;1096;103122;-60
2021/07/18 09:45:23;;;;;;;0.40;0.00;;;;;;;30.28;51.46;100201.05;126052;1095;114184;-61
2021/07/18 09:48:04;;;;;;;0.40;0.00;;;;;;;30.62;50.37;100201.90;126151;1096;102893;-60
2021/07/18 09:50:34;;;;;;;0.40;0.00;;;;;;;30.41;50.09;100206.02;125848;1096;114264;-60
2021/07/18 09:53:18;;;;;;;0.40;0.00;;;;;;;30.49;51.23;100200.53;126144;1095;102893;-60
2021/07/18 09:55:55;;;;;;;0.40;0.00;;;;;;;31.16;49.14;100210.30;126258;1096;113382;-60
2021/07/18 09:58:23;;;;;;;0.40;0.00;;;;;;;30.81;49.77;100204.22;126112;1095;102982;-60
2021/07/18 10:00:51;;;;;;;0.40;0.00;;;;;;;30.84;49.27;100209.38;126206;1095;102891;-60
2021/07/18 10:03:22;;;;;;;0.40;0.00;;;;;;;30.75;49.32;100196.70;126177;1095;114209;-60
2021/07/18 10:06:12;;;;;;;0.40;0.00;;;;;;;31.18;48.79;100201.87;126115;1096;102921;-60
2021/07/18 10:08:44;;;;;;;0.40;0.00;;;;;;;31.04;49.42;100194.37;126006;1095;114374;-60
2021/07/18 10:11:14;;;;;;;0.40;0.00;;;;;;;31.29;47.90;100197.84;126066;1095;103053;-61
2021/07/18 10:13:43;;;;;;;0.40;0.00;;;;;;;31.11;48.47;100193.48;126099;1095;114700;-60
2021/07/18 10:16:12;;;;;;;0.40;0.00;;;;;;;31.43;47.95;100186.06;126206;1096;102898;-60
2021/07/18 10:18:41;;;;;;;0.40;0.00;;;;;;;32.10;47.16;100194.70;126334;1096;102913;-61
2021/07/18 10:21:09;;;;;;;0.40;0.00;;;;;;;31.70;47.37;100192.09;126122;1095;114529;-60
2021/07/18 10:23:39;;;;;;;0.40;0.00;;;;;;;31.57;48.35;100189.91;126019;1095;102996;-60
2021/07/18 10:26:19;;;;;;;0.40;0.00;;;;;;;32.21;46.66;100190.66;126043;1095;114172;-60
2021/07/18 10:28:48;;;;;;;0.40;0.00;;;;;;;32.63;44.93;100189.16;125999;1096;103006;-60
2021/07/18 10:31:19;;;;;;;0.40;0.00;;;;;;;32.59;45.78;100183.19;126548;1097;102895;-61
2021/07/18 10:33:47;;;;;;;0.40;0.00;;;;;;;33.27;43.82;100187.70;125971;1096;112918;-61
2021/07/18 10:36:15;;;;;;;0.40;0.00;;;;;;;34.12;42.27;100182.39;126152;1095;102994;-61
2021/07/18 10:38:42;;;;;;;0.40;0.00;;;;;;;33.76;40.52;100188.86;125924;1095;113118;-61
2021/07/18 10:41:09;;;;;;;0.40;0.00;;;;;;;33.61;42.15;100183.41;126155;1095;102983;-61
2021/07/18 10:43:42;;;;;;;0.40;0.00;;;;;;;33.93;40.80;100184.79;125794;1095;114204;-61
2021/07/18 10:46:11;;;;;;;0.40;0.00;;;;;;;34.26;39.68;100184.20;126136;1095;103028;-61
2021/07/18 10:48:44;;;;;;;0.40;0.00;;;;;;;34.45;39.81;100171.59;126300;1096;103109;-62
2021/07/18 10:51:13;;;;;;;0.40;0.00;;;;;;;34.33;39.39;100179.60;125906;1095;114724;-60
2021/07/18 10:53:41;;;;;;;0.40;0.00;;;;;;;34.17;40.26;100183.49;126089;1096;102985;-60
2021/07/18 10:56:09;;;;;;;0.40;0.00;;;;;;;33.71;41.94;100183.94;125954;1095;114198;-61
2021/07/18 10:58:39;;;;;;;0.40;0.00;;;;;;;33.25;42.57;100181.50;125968;1096;102987;-60
2021/07/18 11:01:26;;;;;;;0.40;0.00;;;;;;;32.74;43.03;100183.20;126136;1095;102992;-60
2021/07/18 11:03:58;;;;;;;0.40;0.00;;;;;;;32.53;43.52;100174.82;126177;1095;114026;-61
2021/07/18 11:06:30;;;;;;;0.40;0.00;;;;;;;32.45;43.98;100171.09;126260;1095;102881;-62
2021/07/18 11:09:06;;;;;;;0.40;0.00;;;;;;;32.62;44.33;100168.16;125956;1096;114365;-61
2021/07/18 11:11:57;;;;;;;0.40;0.00;;;;;;;32.78;43.32;100164.38;126114;1096;103032;-62
2021/07/18 11:14:36;;;;;;;0.40;0.00;;;;;;;32.58;43.11;100164.08;125947;1096;114363;-62